sensor_id;sensor_type;location;lat;lon;timestamp;temperature;humidity
85378;DHT22;75782;48.632;10.230;2024-02-28T00:02:03;8.30;66.90
85378;DHT22;75782;48.632;10.230;2024-02-28T00:04:29;8.30;67.00
85378;DHT22;75782;48.632;10.230;2024-02-28T00:06:56;8.30;67.00
85378;DHT22;75782;48.632;10.230;2024-02-28T00:09:22;8.30;67.00
85378;DHT22;75782;48.632;10.230;2024-02-28T00:11:50;8.20;67.00
85378;DHT22;75782;48.632;10.230;2024-02-28T00:14:17;8.20;67.00
85378;DHT22;75782;48.632;10.230;2024-02-28T00:16:44;8.20;67.00
85378;DHT22;75782;48.632;10.230;2024-02-28T00:19:11;8.20;67.10
85378;DHT22;75782;48.632;10.230;2024-02-28T00:21:39;8.20;67.20
85378;DHT22;75782;48.632;10.230;2024-02-28T00:24:06;8.20;67.10
85378;DHT22;75782;48.632;10.230;2024-02-28T00:26:32;8.20;67.20
85378;DHT22;75782;48.632;10.230;2024-02-28T00:28:58;8.20;67.30
85378;DHT22;75782;48.632;10.230;2024-02-28T00:31:25;8.20;67.30
85378;DHT22;75782;48.632;10.230;2024-02-28T00:33:52;8.20;67.60
85378;DHT22;75782;48.632;10.230;2024-02-28T00:36:20;8.20;67.40
85378;DHT22;75782;48.632;10.230;2024-02-28T00:38:46;8.20;67.40
85378;DHT22;75782;48.632;10.230;2024-02-28T00:41:13;8.20;67.40
85378;DHT22;75782;48.632;10.230;2024-02-28T00:43:39;8.20;67.50
85378;DHT22;75782;48.632;10.230;2024-02-28T00:46:06;8.20;67.30
85378;DHT22;75782;48.632;10.230;2024-02-28T00:48:33;8.20;67.30
85378;DHT22;75782;48.632;10.230;2024-02-28T00:50:59;8.20;67.20
85378;DHT22;75782;48.632;10.230;2024-02-28T00:53:26;8.20;67.00
85378;DHT22;75782;48.632;10.230;2024-02-28T00:55:52;8.20;67.00
85378;DHT22;75782;48.632;10.230;2024-02-28T00:58:19;8.20;67.10
85378;DHT22;75782;48.632;10.230;2024-02-28T01:00:47;8.20;67.00
85378;DHT22;75782;48.632;10.230;2024-02-28T01:03:13;8.20;67.30
85378;DHT22;75782;48.632;10.230;2024-02-28T01:05:40;8.20;67.30
85378;DHT22;75782;48.632;10.230;2024-02-28T01:08:07;8.20;67.20
85378;DHT22;75782;48.632;10.230;2024-02-28T01:10:34;8.20;67.30
85378;DHT22;75782;48.632;10.230;2024-02-28T01:13:02;8.10;67.30
85378;DHT22;75782;48.632;10.230;2024-02-28T01:15:28;8.10;67.30
85378;DHT22;75782;48.632;10.230;2024-02-28T01:17:55;8.20;67.40
85378;DHT22;75782;48.632;10.230;2024-02-28T01:20:21;8.20;67.30
85378;DHT22;75782;48.632;10.230;2024-02-28T01:22:48;8.10;67.30
85378;DHT22;75782;48.632;10.230;2024-02-28T01:25:15;8.10;67.40
85378;DHT22;75782;48.632;10.230;2024-02-28T01:27:42;8.10;67.40
85378;DHT22;75782;48.632;10.230;2024-02-28T01:30:09;8.10;67.50
85378;DHT22;75782;48.632;10.230;2024-02-28T01:32:36;8.10;67.30
85378;DHT22;75782;48.632;10.230;2024-02-28T01:35:02;8.10;67.40
85378;DHT22;75782;48.632;10.230;2024-02-28T01:37:30;8.00;67.40
85378;DHT22;75782;48.632;10.230;2024-02-28T01:39:57;8.00;67.30
85378;DHT22;75782;48.632;10.230;2024-02-28T01:42:24;8.00;67.20
85378;DHT22;75782;48.632;10.230;2024-02-28T01:44:52;8.00;67.00
85378;DHT22;75782;48.632;10.230;2024-02-28T01:47:18;8.00;67.00
85378;DHT22;75782;48.632;10.230;2024-02-28T01:49:45;8.00;67.10
85378;DHT22;75782;48.632;10.230;2024-02-28T01:52:11;8.00;67.00
85378;DHT22;75782;48.632;10.230;2024-02-28T01:54:38;8.00;67.20
85378;DHT22;75782;48.632;10.230;2024-02-28T01:57:05;8.00;67.10
85378;DHT22;75782;48.632;10.230;2024-02-28T01:59:32;8.00;67.50
85378;DHT22;75782;48.632;10.230;2024-02-28T02:01:59;8.00;67.50
85378;DHT22;75782;48.632;10.230;2024-02-28T02:04:25;8.00;67.20
85378;DHT22;75782;48.632;10.230;2024-02-28T02:06:52;8.00;67.20
85378;DHT22;75782;48.632;10.230;2024-02-28T02:09:19;8.00;67.00
85378;DHT22;75782;48.632;10.230;2024-02-28T02:11:46;8.00;67.10
85378;DHT22;75782;48.632;10.230;2024-02-28T02:14:13;8.00;67.40
85378;DHT22;75782;48.632;10.230;2024-02-28T02:16:40;8.00;67.30
85378;DHT22;75782;48.632;10.230;2024-02-28T02:19:08;7.90;67.20
85378;DHT22;75782;48.632;10.230;2024-02-28T02:21:37;8.00;67.40
85378;DHT22;75782;48.632;10.230;2024-02-28T02:24:02;8.00;67.40
85378;DHT22;75782;48.632;10.230;2024-02-28T02:26:28;8.00;67.40
85378;DHT22;75782;48.632;10.230;2024-02-28T02:28:55;8.00;67.30
85378;DHT22;75782;48.632;10.230;2024-02-28T02:31:22;8.00;67.40
85378;DHT22;75782;48.632;10.230;2024-02-28T02:33:48;8.00;67.40
85378;DHT22;75782;48.632;10.230;2024-02-28T02:36:15;8.00;66.80
85378;DHT22;75782;48.632;10.230;2024-02-28T02:38:42;7.90;67.60
85378;DHT22;75782;48.632;10.230;2024-02-28T02:41:09;7.90;67.50
85378;DHT22;75782;48.632;10.230;2024-02-28T02:43:35;7.90;67.50
85378;DHT22;75782;48.632;10.230;2024-02-28T02:46:02;7.90;67.60
85378;DHT22;75782;48.632;10.230;2024-02-28T02:48:29;7.90;67.70
85378;DHT22;75782;48.632;10.230;2024-02-28T02:50:57;7.90;67.80
85378;DHT22;75782;48.632;10.230;2024-02-28T02:53:23;7.90;67.80
85378;DHT22;75782;48.632;10.230;2024-02-28T02:55:50;7.90;67.70
85378;DHT22;75782;48.632;10.230;2024-02-28T02:58:17;7.90;68.30
85378;DHT22;75782;48.632;10.230;2024-02-28T03:00:43;7.90;67.70
85378;DHT22;75782;48.632;10.230;2024-02-28T03:03:10;7.90;67.70
85378;DHT22;75782;48.632;10.230;2024-02-28T03:05:37;7.90;67.80
85378;DHT22;75782;48.632;10.230;2024-02-28T03:08:04;7.90;67.80
85378;DHT22;75782;48.632;10.230;2024-02-28T03:10:30;7.90;67.80
85378;DHT22;75782;48.632;10.230;2024-02-28T03:12:57;7.90;67.90
85378;DHT22;75782;48.632;10.230;2024-02-28T03:15:24;7.90;68.00
85378;DHT22;75782;48.632;10.230;2024-02-28T03:17:50;7.80;68.00
85378;DHT22;75782;48.632;10.230;2024-02-28T03:20:17;7.80;67.90
85378;DHT22;75782;48.632;10.230;2024-02-28T03:22:43;7.80;67.80
85378;DHT22;75782;48.632;10.230;2024-02-28T03:25:10;7.80;67.90
85378;DHT22;75782;48.632;10.230;2024-02-28T03:27:36;7.80;68.20
85378;DHT22;75782;48.632;10.230;2024-02-28T03:30:04;7.70;68.00
85378;DHT22;75782;48.632;10.230;2024-02-28T03:32:30;7.80;68.00
85378;DHT22;75782;48.632;10.230;2024-02-28T03:34:58;7.80;68.00
85378;DHT22;75782;48.632;10.230;2024-02-28T03:37:24;7.70;68.00
85378;DHT22;75782;48.632;10.230;2024-02-28T03:39:51;7.80;67.80
85378;DHT22;75782;48.632;10.230;2024-02-28T03:42:18;7.70;68.00
85378;DHT22;75782;48.632;10.230;2024-02-28T03:44:45;7.80;68.20
85378;DHT22;75782;48.632;10.230;2024-02-28T03:47:12;7.70;68.00
85378;DHT22;75782;48.632;10.230;2024-02-28T03:49:40;7.70;67.90
85378;DHT22;75782;48.632;10.230;2024-02-28T03:52:06;7.70;67.90
85378;DHT22;75782;48.632;10.230;2024-02-28T03:54:33;7.70;68.00
85378;DHT22;75782;48.632;10.230;2024-02-28T03:56:59;7.70;68.00
85378;DHT22;75782;48.632;10.230;2024-02-28T03:59:26;7.70;67.80
85378;DHT22;75782;48.632;10.230;2024-02-28T04:01:53;7.70;67.90
85378;DHT22;75782;48.632;10.230;2024-02-28T04:04:20;7.70;67.90
85378;DHT22;75782;48.632;10.230;2024-02-28T04:06:47;7.70;67.90
85378;DHT22;75782;48.632;10.230;2024-02-28T04:09:13;7.70;68.00
85378;DHT22;75782;48.632;10.230;2024-02-28T04:11:40;7.70;68.00
85378;DHT22;75782;48.632;10.230;2024-02-28T04:14:07;7.70;67.90
85378;DHT22;75782;48.632;10.230;2024-02-28T04:16:35;7.70;67.90
85378;DHT22;75782;48.632;10.230;2024-02-28T04:19:01;7.70;67.90
85378;DHT22;75782;48.632;10.230;2024-02-28T04:21:28;7.70;68.10
85378;DHT22;75782;48.632;10.230;2024-02-28T04:23:54;7.70;68.20
85378;DHT22;75782;48.632;10.230;2024-02-28T04:26:21;7.70;68.10
85378;DHT22;75782;48.632;10.230;2024-02-28T04:28:48;7.70;68.10
85378;DHT22;75782;48.632;10.230;2024-02-28T04:31:15;7.70;67.50
85378;DHT22;75782;48.632;10.230;2024-02-28T04:33:42;7.70;67.30
85378;DHT22;75782;48.632;10.230;2024-02-28T04:36:10;7.60;67.30
85378;DHT22;75782;48.632;10.230;2024-02-28T04:38:36;7.60;67.30
85378;DHT22;75782;48.632;10.230;2024-02-28T04:41:03;7.60;67.00
85378;DHT22;75782;48.632;10.230;2024-02-28T04:43:29;7.50;67.10
85378;DHT22;75782;48.632;10.230;2024-02-28T04:45:56;7.50;67.30
85378;DHT22;75782;48.632;10.230;2024-02-28T04:48:23;7.50;67.60
85378;DHT22;75782;48.632;10.230;2024-02-28T04:50:51;7.50;67.60
85378;DHT22;75782;48.632;10.230;2024-02-28T04:53:18;7.40;67.30
85378;DHT22;75782;48.632;10.230;2024-02-28T04:55:45;7.40;67.30
85378;DHT22;75782;48.632;10.230;2024-02-28T04:58:11;7.40;67.60
85378;DHT22;75782;48.632;10.230;2024-02-28T05:00:38;7.30;67.80
85378;DHT22;75782;48.632;10.230;2024-02-28T05:03:04;7.30;67.80
85378;DHT22;75782;48.632;10.230;2024-02-28T05:05:31;7.30;68.20
85378;DHT22;75782;48.632;10.230;2024-02-28T05:07:58;7.20;68.40
85378;DHT22;75782;48.632;10.230;2024-02-28T05:10:25;7.20;68.40
85378;DHT22;75782;48.632;10.230;2024-02-28T05:12:52;7.20;68.60
85378;DHT22;75782;48.632;10.230;2024-02-28T05:15:18;7.20;68.70
85378;DHT22;75782;48.632;10.230;2024-02-28T05:17:45;7.20;68.60
85378;DHT22;75782;48.632;10.230;2024-02-28T05:20:11;7.20;68.80
85378;DHT22;75782;48.632;10.230;2024-02-28T05:22:40;7.20;68.90
85378;DHT22;75782;48.632;10.230;2024-02-28T05:25:06;7.10;68.80
85378;DHT22;75782;48.632;10.230;2024-02-28T05:27:32;7.20;68.90
85378;DHT22;75782;48.632;10.230;2024-02-28T05:29:59;7.20;69.00
85378;DHT22;75782;48.632;10.230;2024-02-28T05:32:25;7.20;69.00
85378;DHT22;75782;48.632;10.230;2024-02-28T05:34:53;7.30;68.90
85378;DHT22;75782;48.632;10.230;2024-02-28T05:37:20;7.30;68.80
85378;DHT22;75782;48.632;10.230;2024-02-28T05:39:47;7.20;68.70
85378;DHT22;75782;48.632;10.230;2024-02-28T05:42:13;7.30;68.80
85378;DHT22;75782;48.632;10.230;2024-02-28T05:44:40;7.30;68.80
85378;DHT22;75782;48.632;10.230;2024-02-28T05:47:07;7.30;69.20
85378;DHT22;75782;48.632;10.230;2024-02-28T05:49:35;7.20;69.20
85378;DHT22;75782;48.632;10.230;2024-02-28T05:52:01;7.20;69.10
85378;DHT22;75782;48.632;10.230;2024-02-28T05:54:28;7.30;69.20
85378;DHT22;75782;48.632;10.230;2024-02-28T05:56:54;7.30;69.10
85378;DHT22;75782;48.632;10.230;2024-02-28T05:59:21;7.20;69.20
85378;DHT22;75782;48.632;10.230;2024-02-28T06:01:48;7.20;69.30
85378;DHT22;75782;48.632;10.230;2024-02-28T06:04:15;7.20;69.20
85378;DHT22;75782;48.632;10.230;2024-02-28T06:06:42;7.20;69.20
85378;DHT22;75782;48.632;10.230;2024-02-28T06:09:08;7.20;69.20
85378;DHT22;75782;48.632;10.230;2024-02-28T06:11:35;7.20;69.30
85378;DHT22;75782;48.632;10.230;2024-02-28T06:14:01;7.20;69.30
85378;DHT22;75782;48.632;10.230;2024-02-28T06:16:28;7.20;69.40
85378;DHT22;75782;48.632;10.230;2024-02-28T06:18:55;7.20;69.40
85378;DHT22;75782;48.632;10.230;2024-02-28T06:21:22;7.20;69.40
85378;DHT22;75782;48.632;10.230;2024-02-28T06:23:49;7.20;69.60
85378;DHT22;75782;48.632;10.230;2024-02-28T06:26:16;7.20;69.40
85378;DHT22;75782;48.632;10.230;2024-02-28T06:28:44;7.20;69.40
85378;DHT22;75782;48.632;10.230;2024-02-28T06:31:14;7.20;69.20
85378;DHT22;75782;48.632;10.230;2024-02-28T06:33:39;7.20;69.30
85378;DHT22;75782;48.632;10.230;2024-02-28T06:36:06;7.20;69.30
85378;DHT22;75782;48.632;10.230;2024-02-28T06:38:32;7.20;69.50
85378;DHT22;75782;48.632;10.230;2024-02-28T06:40:59;7.20;69.50
85378;DHT22;75782;48.632;10.230;2024-02-28T06:43:26;7.20;69.30
85378;DHT22;75782;48.632;10.230;2024-02-28T06:45:52;7.20;69.30
85378;DHT22;75782;48.632;10.230;2024-02-28T06:48:19;7.20;69.30
85378;DHT22;75782;48.632;10.230;2024-02-28T06:50:45;7.20;69.40
85378;DHT22;75782;48.632;10.230;2024-02-28T06:53:13;7.20;69.60
85378;DHT22;75782;48.632;10.230;2024-02-28T06:55:40;7.20;69.60
85378;DHT22;75782;48.632;10.230;2024-02-28T06:58:07;7.20;69.60
85378;DHT22;75782;48.632;10.230;2024-02-28T07:00:33;7.20;69.60
85378;DHT22;75782;48.632;10.230;2024-02-28T07:03:00;7.20;69.60
85378;DHT22;75782;48.632;10.230;2024-02-28T07:05:27;7.20;69.70
85378;DHT22;75782;48.632;10.230;2024-02-28T07:07:53;7.20;69.50
85378;DHT22;75782;48.632;10.230;2024-02-28T07:10:20;7.20;69.60
85378;DHT22;75782;48.632;10.230;2024-02-28T07:12:47;7.10;69.60
85378;DHT22;75782;48.632;10.230;2024-02-28T07:15:14;7.20;69.60
85378;DHT22;75782;48.632;10.230;2024-02-28T07:17:40;7.20;69.80
85378;DHT22;75782;48.632;10.230;2024-02-28T07:20:08;7.20;69.70
85378;DHT22;75782;48.632;10.230;2024-02-28T07:22:35;7.20;69.80
85378;DHT22;75782;48.632;10.230;2024-02-28T07:25:02;7.20;69.70
85378;DHT22;75782;48.632;10.230;2024-02-28T07:27:29;7.20;69.70
85378;DHT22;75782;48.632;10.230;2024-02-28T07:29:56;7.20;69.70
85378;DHT22;75782;48.632;10.230;2024-02-28T07:32:23;7.30;70.50
85378;DHT22;75782;48.632;10.230;2024-02-28T07:34:50;7.20;69.70
85378;DHT22;75782;48.632;10.230;2024-02-28T07:37:16;7.30;69.80
85378;DHT22;75782;48.632;10.230;2024-02-28T07:39:43;7.30;69.80
85378;DHT22;75782;48.632;10.230;2024-02-28T07:42:09;7.30;69.70
85378;DHT22;75782;48.632;10.230;2024-02-28T07:44:36;7.40;69.70
85378;DHT22;75782;48.632;10.230;2024-02-28T07:47:03;7.40;69.60
85378;DHT22;75782;48.632;10.230;2024-02-28T07:49:29;7.40;69.60
85378;DHT22;75782;48.632;10.230;2024-02-28T07:51:57;7.50;69.40
85378;DHT22;75782;48.632;10.230;2024-02-28T07:54:23;7.40;69.30
85378;DHT22;75782;48.632;10.230;2024-02-28T07:56:50;7.50;69.20
85378;DHT22;75782;48.632;10.230;2024-02-28T07:59:17;7.50;69.00
85378;DHT22;75782;48.632;10.230;2024-02-28T08:01:43;7.40;68.90
85378;DHT22;75782;48.632;10.230;2024-02-28T08:04:10;7.40;69.00
85378;DHT22;75782;48.632;10.230;2024-02-28T08:06:36;7.40;69.10
85378;DHT22;75782;48.632;10.230;2024-02-28T08:09:04;7.50;69.40
85378;DHT22;75782;48.632;10.230;2024-02-28T08:11:31;7.50;69.30
85378;DHT22;75782;48.632;10.230;2024-02-28T08:13:58;7.50;69.40
85378;DHT22;75782;48.632;10.230;2024-02-28T08:16:26;7.50;69.00
85378;DHT22;75782;48.632;10.230;2024-02-28T08:18:52;7.50;68.90
85378;DHT22;75782;48.632;10.230;2024-02-28T08:21:19;7.60;68.80
85378;DHT22;75782;48.632;10.230;2024-02-28T08:23:45;7.60;68.70
85378;DHT22;75782;48.632;10.230;2024-02-28T08:26:13;7.60;68.40
85378;DHT22;75782;48.632;10.230;2024-02-28T08:28:40;7.60;68.10
85378;DHT22;75782;48.632;10.230;2024-02-28T08:31:07;7.60;68.10
85378;DHT22;75782;48.632;10.230;2024-02-28T08:33:33;7.60;68.00
85378;DHT22;75782;48.632;10.230;2024-02-28T08:36:00;7.70;67.80
85378;DHT22;75782;48.632;10.230;2024-02-28T08:38:28;7.70;68.30
85378;DHT22;75782;48.632;10.230;2024-02-28T08:40:54;7.70;68.30
85378;DHT22;75782;48.632;10.230;2024-02-28T08:43:21;7.70;67.90
85378;DHT22;75782;48.632;10.230;2024-02-28T08:45:48;7.70;67.90
85378;DHT22;75782;48.632;10.230;2024-02-28T08:48:14;7.70;67.90
85378;DHT22;75782;48.632;10.230;2024-02-28T08:50:42;7.80;68.10
85378;DHT22;75782;48.632;10.230;2024-02-28T08:53:09;7.80;67.90
85378;DHT22;75782;48.632;10.230;2024-02-28T08:55:36;7.80;67.80
85378;DHT22;75782;48.632;10.230;2024-02-28T08:58:02;7.80;67.70
85378;DHT22;75782;48.632;10.230;2024-02-28T09:00:29;7.80;67.60
85378;DHT22;75782;48.632;10.230;2024-02-28T09:02:55;7.80;67.60
85378;DHT22;75782;48.632;10.230;2024-02-28T09:05:22;7.80;67.70
85378;DHT22;75782;48.632;10.230;2024-02-28T09:07:49;7.80;67.80
85378;DHT22;75782;48.632;10.230;2024-02-28T09:10:16;7.90;67.50
85378;DHT22;75782;48.632;10.230;2024-02-28T09:12:43;8.00;67.40
85378;DHT22;75782;48.632;10.230;2024-02-28T09:15:10;7.90;67.30
85378;DHT22;75782;48.632;10.230;2024-02-28T09:17:36;8.00;66.80
85378;DHT22;75782;48.632;10.230;2024-02-28T09:20:03;8.00;67.20
85378;DHT22;75782;48.632;10.230;2024-02-28T09:22:30;8.10;66.90
85378;DHT22;75782;48.632;10.230;2024-02-28T09:24:56;8.10;66.60
85378;DHT22;75782;48.632;10.230;2024-02-28T09:27:23;8.10;66.70
85378;DHT22;75782;48.632;10.230;2024-02-28T09:29:50;8.10;66.80
85378;DHT22;75782;48.632;10.230;2024-02-28T09:32:16;8.10;66.60
85378;DHT22;75782;48.632;10.230;2024-02-28T09:34:44;8.10;66.50
85378;DHT22;75782;48.632;10.230;2024-02-28T09:37:11;8.10;66.70
85378;DHT22;75782;48.632;10.230;2024-02-28T09:39:38;8.10;66.40
85378;DHT22;75782;48.632;10.230;2024-02-28T09:42:07;8.20;67.30
85378;DHT22;75782;48.632;10.230;2024-02-28T09:44:34;8.10;66.60
85378;DHT22;75782;48.632;10.230;2024-02-28T09:47:00;8.20;66.40
85378;DHT22;75782;48.632;10.230;2024-02-28T09:49:27;8.20;66.20
85378;DHT22;75782;48.632;10.230;2024-02-28T09:51:54;8.20;66.50
85378;DHT22;75782;48.632;10.230;2024-02-28T09:54:22;8.20;66.70
85378;DHT22;75782;48.632;10.230;2024-02-28T09:56:48;8.20;66.60
85378;DHT22;75782;48.632;10.230;2024-02-28T09:59:17;8.20;66.80
85378;DHT22;75782;48.632;10.230;2024-02-28T10:01:43;8.20;66.40
85378;DHT22;75782;48.632;10.230;2024-02-28T10:04:10;8.20;66.10
85378;DHT22;75782;48.632;10.230;2024-02-28T10:06:39;8.20;65.90
85378;DHT22;75782;48.632;10.230;2024-02-28T10:09:04;8.20;66.20
85378;DHT22;75782;48.632;10.230;2024-02-28T10:11:31;8.20;66.20
85378;DHT22;75782;48.632;10.230;2024-02-28T10:13:57;8.20;66.30
85378;DHT22;75782;48.632;10.230;2024-02-28T10:16:24;8.20;66.10
85378;DHT22;75782;48.632;10.230;2024-02-28T10:18:51;8.20;66.60
85378;DHT22;75782;48.632;10.230;2024-02-28T10:21:19;8.30;66.70
85378;DHT22;75782;48.632;10.230;2024-02-28T10:23:45;8.30;66.70
85378;DHT22;75782;48.632;10.230;2024-02-28T10:26:12;8.30;66.20
85378;DHT22;75782;48.632;10.230;2024-02-28T10:28:39;8.30;65.90
85378;DHT22;75782;48.632;10.230;2024-02-28T10:31:06;8.20;65.90
85378;DHT22;75782;48.632;10.230;2024-02-28T10:33:34;8.20;66.30
85378;DHT22;75782;48.632;10.230;2024-02-28T10:36:00;8.20;66.30
85378;DHT22;75782;48.632;10.230;2024-02-28T10:38:27;8.30;66.00
85378;DHT22;75782;48.632;10.230;2024-02-28T10:40:54;8.30;65.80
85378;DHT22;75782;48.632;10.230;2024-02-28T10:43:21;8.30;65.90
85378;DHT22;75782;48.632;10.230;2024-02-28T10:45:48;8.30;65.90
85378;DHT22;75782;48.632;10.230;2024-02-28T10:48:15;8.30;65.90
85378;DHT22;75782;48.632;10.230;2024-02-28T10:50:43;8.30;66.10
85378;DHT22;75782;48.632;10.230;2024-02-28T10:53:14;8.30;66.20
85378;DHT22;75782;48.632;10.230;2024-02-28T10:55:37;8.30;66.30
85378;DHT22;75782;48.632;10.230;2024-02-28T10:58:03;8.30;66.50
85378;DHT22;75782;48.632;10.230;2024-02-28T11:00:31;8.30;66.20
85378;DHT22;75782;48.632;10.230;2024-02-28T11:02:58;8.30;65.80
85378;DHT22;75782;48.632;10.230;2024-02-28T11:05:34;8.30;65.80
85378;DHT22;75782;48.632;10.230;2024-02-28T11:07:51;8.40;65.70
85378;DHT22;75782;48.632;10.230;2024-02-28T11:10:18;8.40;65.80
85378;DHT22;75782;48.632;10.230;2024-02-28T11:12:54;8.40;66.30
85378;DHT22;75782;48.632;10.230;2024-02-28T11:15:15;8.50;65.50
85378;DHT22;75782;48.632;10.230;2024-02-28T11:17:38;8.50;65.50
85378;DHT22;75782;48.632;10.230;2024-02-28T11:20:13;8.50;65.80
85378;DHT22;75782;48.632;10.230;2024-02-28T11:22:40;8.60;65.40
85378;DHT22;75782;48.632;10.230;2024-02-28T11:25:07;8.60;65.90
85378;DHT22;75782;48.632;10.230;2024-02-28T11:27:34;8.60;65.00
85378;DHT22;75782;48.632;10.230;2024-02-28T11:30:00;8.60;65.10
85378;DHT22;75782;48.632;10.230;2024-02-28T11:32:29;8.60;64.80
85378;DHT22;75782;48.632;10.230;2024-02-28T11:34:53;8.60;64.80
85378;DHT22;75782;48.632;10.230;2024-02-28T11:37:20;8.60;64.20
85378;DHT22;75782;48.632;10.230;2024-02-28T11:39:47;8.60;63.90
85378;DHT22;75782;48.632;10.230;2024-02-28T11:42:14;8.70;63.60
85378;DHT22;75782;48.632;10.230;2024-02-28T11:44:40;8.70;63.60
85378;DHT22;75782;48.632;10.230;2024-02-28T11:47:08;8.70;63.20
85378;DHT22;75782;48.632;10.230;2024-02-28T11:49:34;8.70;63.10
85378;DHT22;75782;48.632;10.230;2024-02-28T11:52:01;8.70;63.10
85378;DHT22;75782;48.632;10.230;2024-02-28T11:54:28;8.80;62.90
85378;DHT22;75782;48.632;10.230;2024-02-28T11:56:56;8.80;63.30
85378;DHT22;75782;48.632;10.230;2024-02-28T11:59:22;8.80;63.30
85378;DHT22;75782;48.632;10.230;2024-02-28T12:01:49;8.80;63.30
85378;DHT22;75782;48.632;10.230;2024-02-28T12:04:16;8.80;63.30
85378;DHT22;75782;48.632;10.230;2024-02-28T12:06:43;8.80;62.60
85378;DHT22;75782;48.632;10.230;2024-02-28T12:09:12;8.90;62.50
85378;DHT22;75782;48.632;10.230;2024-02-28T12:11:37;8.90;62.50
85378;DHT22;75782;48.632;10.230;2024-02-28T12:14:04;8.90;62.70
85378;DHT22;75782;48.632;10.230;2024-02-28T12:16:30;8.90;62.30
85378;DHT22;75782;48.632;10.230;2024-02-28T12:18:57;9.00;62.70
85378;DHT22;75782;48.632;10.230;2024-02-28T12:21:25;9.00;63.00
85378;DHT22;75782;48.632;10.230;2024-02-28T12:23:51;9.00;63.00
85378;DHT22;75782;48.632;10.230;2024-02-28T12:26:18;9.00;62.40
85378;DHT22;75782;48.632;10.230;2024-02-28T12:28:45;9.00;62.90
85378;DHT22;75782;48.632;10.230;2024-02-28T12:31:11;9.10;62.60
85378;DHT22;75782;48.632;10.230;2024-02-28T12:33:38;9.10;62.50
85378;DHT22;75782;48.632;10.230;2024-02-28T12:36:05;9.10;62.30
85378;DHT22;75782;48.632;10.230;2024-02-28T12:38:31;9.10;62.50
85378;DHT22;75782;48.632;10.230;2024-02-28T12:40:58;9.10;63.30
85378;DHT22;75782;48.632;10.230;2024-02-28T12:43:24;9.10;62.70
85378;DHT22;75782;48.632;10.230;2024-02-28T12:45:53;9.00;62.50
85378;DHT22;75782;48.632;10.230;2024-02-28T12:48:20;9.00;62.50
85378;DHT22;75782;48.632;10.230;2024-02-28T12:50:47;9.00;62.50
85378;DHT22;75782;48.632;10.230;2024-02-28T12:53:13;9.00;62.50
85378;DHT22;75782;48.632;10.230;2024-02-28T12:55:40;9.00;62.40
85378;DHT22;75782;48.632;10.230;2024-02-28T12:58:07;8.90;62.50
85378;DHT22;75782;48.632;10.230;2024-02-28T13:00:34;8.90;62.50
85378;DHT22;75782;48.632;10.230;2024-02-28T13:03:00;8.90;62.70
85378;DHT22;75782;48.632;10.230;2024-02-28T13:05:27;8.90;62.80
85378;DHT22;75782;48.632;10.230;2024-02-28T13:07:54;8.90;62.20
85378;DHT22;75782;48.632;10.230;2024-02-28T13:10:22;8.90;62.20
85378;DHT22;75782;48.632;10.230;2024-02-28T13:12:48;8.90;62.10
85378;DHT22;75782;48.632;10.230;2024-02-28T13:15:16;8.90;62.00
85378;DHT22;75782;48.632;10.230;2024-02-28T13:17:43;9.00;62.30
85378;DHT22;75782;48.632;10.230;2024-02-28T13:20:10;8.90;62.20
85378;DHT22;75782;48.632;10.230;2024-02-28T13:22:37;9.00;62.30
85378;DHT22;75782;48.632;10.230;2024-02-28T13:25:04;9.00;61.90
85378;DHT22;75782;48.632;10.230;2024-02-28T13:27:30;9.00;62.10
85378;DHT22;75782;48.632;10.230;2024-02-28T13:29:57;9.10;62.40
85378;DHT22;75782;48.632;10.230;2024-02-28T13:32:24;9.10;62.20
85378;DHT22;75782;48.632;10.230;2024-02-28T13:34:51;9.20;61.30
85378;DHT22;75782;48.632;10.230;2024-02-28T13:37:18;9.20;61.30
85378;DHT22;75782;48.632;10.230;2024-02-28T13:39:45;9.20;61.90
85378;DHT22;75782;48.632;10.230;2024-02-28T13:42:12;9.30;60.90
85378;DHT22;75782;48.632;10.230;2024-02-28T13:44:38;9.30;61.00
85378;DHT22;75782;48.632;10.230;2024-02-28T13:47:05;9.40;61.00
85378;DHT22;75782;48.632;10.230;2024-02-28T13:49:31;9.40;60.90
85378;DHT22;75782;48.632;10.230;2024-02-28T13:51:58;9.40;60.40
85378;DHT22;75782;48.632;10.230;2024-02-28T13:54:25;9.40;60.30
85378;DHT22;75782;48.632;10.230;2024-02-28T13:56:52;9.40;61.00
85378;DHT22;75782;48.632;10.230;2024-02-28T13:59:19;9.40;60.30
85378;DHT22;75782;48.632;10.230;2024-02-28T14:01:45;9.40;60.60
85378;DHT22;75782;48.632;10.230;2024-02-28T14:04:12;9.40;61.30
85378;DHT22;75782;48.632;10.230;2024-02-28T14:06:38;9.40;61.40
85378;DHT22;75782;48.632;10.230;2024-02-28T14:09:05;9.40;61.30
85378;DHT22;75782;48.632;10.230;2024-02-28T14:11:32;9.40;61.50
85378;DHT22;75782;48.632;10.230;2024-02-28T14:13:58;9.40;61.30
85378;DHT22;75782;48.632;10.230;2024-02-28T14:16:25;9.40;61.10
85378;DHT22;75782;48.632;10.230;2024-02-28T14:18:51;9.40;60.90
85378;DHT22;75782;48.632;10.230;2024-02-28T14:21:19;9.30;61.20
85378;DHT22;75782;48.632;10.230;2024-02-28T14:23:45;9.30;61.80
85378;DHT22;75782;48.632;10.230;2024-02-28T14:26:12;9.30;62.00
85378;DHT22;75782;48.632;10.230;2024-02-28T14:28:39;9.30;62.10
85378;DHT22;75782;48.632;10.230;2024-02-28T14:31:06;9.30;62.10
85378;DHT22;75782;48.632;10.230;2024-02-28T14:33:33;9.30;61.90
85378;DHT22;75782;48.632;10.230;2024-02-28T14:36:00;9.30;61.80
85378;DHT22;75782;48.632;10.230;2024-02-28T14:38:27;9.30;61.80
85378;DHT22;75782;48.632;10.230;2024-02-28T14:40:53;9.30;61.80
85378;DHT22;75782;48.632;10.230;2024-02-28T14:43:20;9.20;61.90
85378;DHT22;75782;48.632;10.230;2024-02-28T14:45:47;9.20;61.60
85378;DHT22;75782;48.632;10.230;2024-02-28T14:48:14;9.20;61.60
85378;DHT22;75782;48.632;10.230;2024-02-28T14:50:40;9.20;62.20
85378;DHT22;75782;48.632;10.230;2024-02-28T14:53:08;9.20;63.30
85378;DHT22;75782;48.632;10.230;2024-02-28T14:55:35;9.10;64.00
85378;DHT22;75782;48.632;10.230;2024-02-28T14:58:02;9.10;64.00
85378;DHT22;75782;48.632;10.230;2024-02-28T15:00:28;9.10;64.00
85378;DHT22;75782;48.632;10.230;2024-02-28T15:02:55;9.10;64.00
85378;DHT22;75782;48.632;10.230;2024-02-28T15:05:22;9.10;64.10
85378;DHT22;75782;48.632;10.230;2024-02-28T15:07:49;9.00;64.00
85378;DHT22;75782;48.632;10.230;2024-02-28T15:10:15;9.00;63.90
85378;DHT22;75782;48.632;10.230;2024-02-28T15:12:42;8.90;63.90
85378;DHT22;75782;48.632;10.230;2024-02-28T15:15:09;8.90;64.10
85378;DHT22;75782;48.632;10.230;2024-02-28T15:17:35;8.90;64.40
85378;DHT22;75782;48.632;10.230;2024-02-28T15:20:02;8.90;64.30
85378;DHT22;75782;48.632;10.230;2024-02-28T15:22:30;8.90;64.20
85378;DHT22;75782;48.632;10.230;2024-02-28T15:24:56;8.80;63.90
85378;DHT22;75782;48.632;10.230;2024-02-28T15:27:24;8.80;63.90